TKY1CP EPMO-EPSC
Flight info
| Callsign | TKY1CP |
|---|---|
| Flight time | 0h 40m |
| Altitude | 34000 |
| Route | OLILA DCT ELTUB |
| Aircraft | B738/M-SDE2E3FGHIRWXY/LB1 |
Departure
| Time | 2026-05-08 21:13 |
|---|---|
| Airport | Warsaw Modlin Airport (EPMO) |
Arrival
| Time | 2026-05-08 21:53 |
|---|---|
| Airport | Solidarity Szczecin–Goleniów Airport (EPSC) |
| Time | Latitude | Longitude | Altitude | Speed | Heading |
|---|---|---|---|---|---|
| 2026-05-08 20:50 | 52.44755 | 20.65356 | 349 ft | 0 kts | 194° |
| 2026-05-08 21:02 | 52.44767 | 20.65360 | 358 ft | 4 kts | 180° |
| 2026-05-08 21:02 | 52.44789 | 20.65349 | 355 ft | 4 kts | 123° |
| 2026-05-08 21:02 | 52.44796 | 20.65312 | 359 ft | 2 kts | 83° |
| 2026-05-08 21:03 | 52.44795 | 20.65309 | 359 ft | 0 kts | 83° |
| 2026-05-08 21:05 | 52.44797 | 20.65332 | 355 ft | 6 kts | 83° |
| 2026-05-08 21:06 | 52.44808 | 20.65453 | 358 ft | 16 kts | 81° |
| 2026-05-08 21:06 | 52.44828 | 20.65676 | 349 ft | 23 kts | 82° |
| 2026-05-08 21:06 | 52.44851 | 20.65929 | 351 ft | 22 kts | 81° |
| 2026-05-08 21:06 | 52.44873 | 20.66175 | 349 ft | 22 kts | 81° |
| 2026-05-08 21:07 | 52.44896 | 20.66413 | 354 ft | 21 kts | 81° |
| 2026-05-08 21:07 | 52.44917 | 20.66645 | 349 ft | 20 kts | 82° |
| 2026-05-08 21:07 | 52.44939 | 20.66870 | 356 ft | 20 kts | 81° |
| 2026-05-08 21:07 | 52.44986 | 20.67063 | 354 ft | 19 kts | 20° |
| 2026-05-08 21:08 | 52.45115 | 20.67046 | 351 ft | 18 kts | 352° |
| 2026-05-08 21:08 | 52.45187 | 20.67025 | 356 ft | 0 kts | 342° |
| 2026-05-08 21:12 | 52.45202 | 20.67016 | 355 ft | 7 kts | 341° |
| 2026-05-08 21:12 | 52.45271 | 20.66943 | 352 ft | 16 kts | 295° |
| 2026-05-08 21:12 | 52.45267 | 20.66748 | 352 ft | 19 kts | 261° |
| 2026-05-08 21:12 | 52.45210 | 20.66142 | 357 ft | 91 kts | 261° |
| 2026-05-08 21:13 | 52.45082 | 20.64778 | 357 ft | 151 kts | 263° |
| 2026-05-08 21:13 | 52.44911 | 20.62943 | 894 ft | 163 kts | 261° |
| 2026-05-08 21:13 | 52.44699 | 20.61164 | 1795 ft | 159 kts | 261° |
| 2026-05-08 21:13 | 52.44464 | 20.59366 | 2349 ft | 173 kts | 260° |
| 2026-05-08 21:14 | 52.44204 | 20.57235 | 2627 ft | 202 kts | 261° |
| 2026-05-08 21:14 | 52.43926 | 20.54851 | 2834 ft | 223 kts | 261° |
| 2026-05-08 21:14 | 52.43637 | 20.52302 | 3292 ft | 229 kts | 260° |
| 2026-05-08 21:14 | 52.43356 | 20.49742 | 3859 ft | 227 kts | 260° |
| 2026-05-08 21:15 | 52.43078 | 20.47138 | 3943 ft | 238 kts | 260° |
| 2026-05-08 21:15 | 52.42786 | 20.44395 | 3980 ft | 251 kts | 261° |
| 2026-05-08 21:15 | 52.42483 | 20.41562 | 3994 ft | 256 kts | 261° |
| 2026-05-08 21:15 | 52.42178 | 20.38677 | 3988 ft | 258 kts | 261° |
| 2026-05-08 21:16 | 52.42115 | 20.35807 | 3963 ft | 256 kts | 284° |
| 2026-05-08 21:16 | 52.42551 | 20.33992 | 4010 ft | 253 kts | 295° |
| 2026-05-08 21:16 | 52.43341 | 20.31432 | 4000 ft | 252 kts | 296° |
| 2026-05-08 21:16 | 52.44140 | 20.28855 | 4048 ft | 256 kts | 296° |
| 2026-05-08 21:17 | 52.44939 | 20.26236 | 4727 ft | 258 kts | 296° |
| 2026-05-08 21:17 | 52.45733 | 20.23584 | 5534 ft | 261 kts | 295° |
| 2026-05-08 21:17 | 52.46523 | 20.20899 | 6362 ft | 263 kts | 295° |
| 2026-05-08 21:17 | 52.47319 | 20.18157 | 7135 ft | 267 kts | 294° |
| 2026-05-08 21:18 | 52.48111 | 20.15395 | 7971 ft | 269 kts | 294° |
| 2026-05-08 21:18 | 52.48906 | 20.12602 | 8825 ft | 271 kts | 294° |
| 2026-05-08 21:18 | 52.49707 | 20.09772 | 9673 ft | 275 kts | 294° |
| 2026-05-08 21:18 | 52.50509 | 20.06917 | 10469 ft | 280 kts | 294° |
| 2026-05-08 21:19 | 52.51356 | 20.03891 | 10735 ft | 305 kts | 294° |
| 2026-05-08 21:19 | 52.52273 | 20.00599 | 10926 ft | 329 kts | 294° |
| 2026-05-08 21:19 | 52.53258 | 19.97053 | 11125 ft | 351 kts | 294° |
| 2026-05-08 21:19 | 52.54276 | 19.93382 | 11584 ft | 362 kts | 294° |
| 2026-05-08 21:20 | 52.55322 | 19.89602 | 12277 ft | 367 kts | 293° |
| 2026-05-08 21:20 | 52.56381 | 19.85769 | 13048 ft | 370 kts | 293° |
| 2026-05-08 21:20 | 52.57451 | 19.81889 | 13739 ft | 377 kts | 293° |
| 2026-05-08 21:20 | 52.58554 | 19.77877 | 14393 ft | 382 kts | 293° |
| 2026-05-08 21:21 | 52.59638 | 19.73931 | 15161 ft | 384 kts | 293° |
| 2026-05-08 21:21 | 52.60736 | 19.69922 | 15956 ft | 386 kts | 293° |
| 2026-05-08 21:21 | 52.61845 | 19.65869 | 16703 ft | 389 kts | 293° |
| 2026-05-08 21:21 | 52.62958 | 19.61790 | 17430 ft | 392 kts | 292° |
| 2026-05-08 21:22 | 52.64080 | 19.57674 | 18154 ft | 396 kts | 292° |
| 2026-05-08 21:22 | 52.65209 | 19.53521 | 18812 ft | 399 kts | 292° |
| 2026-05-08 21:22 | 52.66344 | 19.49344 | 19459 ft | 401 kts | 292° |
| 2026-05-08 21:22 | 52.67481 | 19.45146 | 20131 ft | 403 kts | 292° |
| 2026-05-08 21:23 | 52.68628 | 19.40909 | 20775 ft | 405 kts | 293° |
| 2026-05-08 21:23 | 52.69774 | 19.36665 | 21420 ft | 407 kts | 293° |
| 2026-05-08 21:23 | 52.70923 | 19.32400 | 22018 ft | 409 kts | 293° |
| 2026-05-08 21:23 | 52.72083 | 19.28092 | 22575 ft | 412 kts | 293° |
| 2026-05-08 21:24 | 52.73245 | 19.23761 | 23127 ft | 414 kts | 293° |
| 2026-05-08 21:24 | 52.74414 | 19.19400 | 23676 ft | 417 kts | 293° |
| 2026-05-08 21:24 | 52.75589 | 19.15007 | 24117 ft | 419 kts | 293° |
| 2026-05-08 21:24 | 52.76769 | 19.10590 | 24553 ft | 421 kts | 293° |
| 2026-05-08 21:25 | 52.77951 | 19.06154 | 24978 ft | 424 kts | 293° |
| 2026-05-08 21:25 | 52.79139 | 19.01686 | 25392 ft | 426 kts | 292° |
| 2026-05-08 21:25 | 52.80332 | 18.97190 | 25798 ft | 428 kts | 292° |
| 2026-05-08 21:25 | 52.81528 | 18.92679 | 26233 ft | 429 kts | 293° |
| 2026-05-08 21:26 | 52.82725 | 18.88151 | 26665 ft | 430 kts | 293° |
| 2026-05-08 21:26 | 52.83924 | 18.83606 | 27020 ft | 433 kts | 293° |
| 2026-05-08 21:26 | 52.85132 | 18.79018 | 27363 ft | 435 kts | 293° |
| 2026-05-08 21:26 | 52.86340 | 18.74422 | 27710 ft | 437 kts | 293° |
| 2026-05-08 21:27 | 52.87554 | 18.69793 | 28058 ft | 439 kts | 293° |
| 2026-05-08 21:27 | 52.88767 | 18.65155 | 28445 ft | 440 kts | 293° |
| 2026-05-08 21:27 | 52.89982 | 18.60504 | 28972 ft | 437 kts | 293° |
| 2026-05-08 21:27 | 52.91182 | 18.55903 | 29562 ft | 434 kts | 293° |
| 2026-05-08 21:28 | 52.92372 | 18.51325 | 30091 ft | 432 kts | 292° |
| 2026-05-08 21:28 | 52.93561 | 18.46749 | 30497 ft | 432 kts | 292° |
| 2026-05-08 21:28 | 52.94748 | 18.42163 | 30774 ft | 434 kts | 292° |
| 2026-05-08 21:28 | 52.95939 | 18.37554 | 31038 ft | 436 kts | 292° |
| 2026-05-08 21:29 | 52.97130 | 18.32938 | 31361 ft | 436 kts | 292° |
| 2026-05-08 21:29 | 52.98321 | 18.28311 | 31696 ft | 437 kts | 292° |
| 2026-05-08 21:29 | 52.99516 | 18.23663 | 31980 ft | 438 kts | 292° |
| 2026-05-08 21:29 | 53.00715 | 18.18985 | 32260 ft | 440 kts | 292° |
| 2026-05-08 21:30 | 53.01894 | 18.14378 | 32569 ft | 440 kts | 291° |
| 2026-05-08 21:30 | 53.03090 | 18.09694 | 32890 ft | 441 kts | 291° |
| 2026-05-08 21:30 | 53.04301 | 18.04940 | 33179 ft | 442 kts | 291° |
| 2026-05-08 21:30 | 53.05501 | 18.00222 | 33447 ft | 444 kts | 291° |
| 2026-05-08 21:31 | 53.06687 | 17.95549 | 33738 ft | 445 kts | 291° |
| 2026-05-08 21:31 | 53.07886 | 17.90813 | 34069 ft | 445 kts | 291° |
| 2026-05-08 21:31 | 53.09106 | 17.85983 | 34116 ft | 449 kts | 291° |
| 2026-05-08 21:32 | 53.11505 | 17.76456 | 34158 ft | 449 kts | 291° |
| 2026-05-08 21:32 | 53.13913 | 17.66859 | 34160 ft | 444 kts | 291° |
| 2026-05-08 21:33 | 53.16264 | 17.57445 | 34170 ft | 443 kts | 291° |
| 2026-05-08 21:33 | 53.18618 | 17.47974 | 34162 ft | 441 kts | 291° |
| 2026-05-08 21:34 | 53.20957 | 17.38524 | 34171 ft | 441 kts | 291° |
| 2026-05-08 21:34 | 53.23289 | 17.29063 | 34158 ft | 441 kts | 291° |
| 2026-05-08 21:35 | 53.25617 | 17.19580 | 34161 ft | 442 kts | 291° |
| 2026-05-08 21:35 | 53.27945 | 17.10054 | 34175 ft | 443 kts | 291° |
| 2026-05-08 21:35 | 53.29113 | 17.05258 | 33702 ft | 450 kts | 291° |
| 2026-05-08 21:36 | 53.30290 | 17.00413 | 33034 ft | 447 kts | 291° |
| 2026-05-08 21:36 | 53.31456 | 16.95606 | 32269 ft | 445 kts | 291° |
| 2026-05-08 21:36 | 53.32614 | 16.90821 | 31470 ft | 443 kts | 291° |
| 2026-05-08 21:36 | 53.33767 | 16.86045 | 30636 ft | 443 kts | 291° |
| 2026-05-08 21:37 | 53.34918 | 16.81269 | 29687 ft | 442 kts | 291° |
| 2026-05-08 21:37 | 53.36062 | 16.76510 | 28711 ft | 441 kts | 291° |
| 2026-05-08 21:37 | 53.37203 | 16.71751 | 27744 ft | 440 kts | 291° |
| 2026-05-08 21:37 | 53.38339 | 16.67002 | 26745 ft | 440 kts | 291° |
| 2026-05-08 21:38 | 53.39475 | 16.62245 | 25882 ft | 438 kts | 291° |
| 2026-05-08 21:38 | 53.40597 | 16.57540 | 25130 ft | 432 kts | 291° |
| 2026-05-08 21:38 | 53.41706 | 16.52877 | 24397 ft | 428 kts | 291° |
| 2026-05-08 21:38 | 53.42800 | 16.48265 | 23691 ft | 424 kts | 291° |
| 2026-05-08 21:39 | 53.43886 | 16.43677 | 22840 ft | 421 kts | 291° |
| 2026-05-08 21:39 | 53.44955 | 16.39153 | 22113 ft | 415 kts | 291° |
| 2026-05-08 21:39 | 53.46010 | 16.34677 | 21392 ft | 411 kts | 291° |
| 2026-05-08 21:39 | 53.47057 | 16.30226 | 20677 ft | 408 kts | 291° |
| 2026-05-08 21:40 | 53.48091 | 16.25821 | 19973 ft | 404 kts | 291° |
| 2026-05-08 21:40 | 53.49123 | 16.21416 | 19279 ft | 408 kts | 291° |
| 2026-05-08 21:40 | 53.50171 | 16.16933 | 18573 ft | 415 kts | 291° |
| 2026-05-08 21:41 | 53.52258 | 16.07980 | 17010 ft | 406 kts | 291° |
| 2026-05-08 21:41 | 53.53276 | 16.03596 | 16299 ft | 400 kts | 292° |
| 2026-05-08 21:41 | 53.54280 | 15.99265 | 15607 ft | 395 kts | 292° |
| 2026-05-08 21:41 | 53.55269 | 15.94991 | 14907 ft | 390 kts | 292° |
| 2026-05-08 21:42 | 53.56248 | 15.90750 | 14211 ft | 387 kts | 292° |
| 2026-05-08 21:42 | 53.57216 | 15.86551 | 13494 ft | 384 kts | 292° |
| 2026-05-08 21:42 | 53.58163 | 15.82435 | 12781 ft | 380 kts | 292° |
| 2026-05-08 21:42 | 53.59123 | 15.78255 | 12098 ft | 376 kts | 292° |
| 2026-05-08 21:43 | 53.60064 | 15.74147 | 11363 ft | 375 kts | 292° |
| 2026-05-08 21:43 | 53.60981 | 15.70136 | 11200 ft | 359 kts | 291° |
| 2026-05-08 21:43 | 53.61858 | 15.66292 | 11034 ft | 345 kts | 292° |
| 2026-05-08 21:43 | 53.62700 | 15.62597 | 10905 ft | 332 kts | 292° |
| 2026-05-08 21:44 | 53.63503 | 15.59073 | 10763 ft | 321 kts | 292° |
| 2026-05-08 21:44 | 53.64298 | 15.55571 | 10618 ft | 311 kts | 292° |
| 2026-05-08 21:44 | 53.65057 | 15.52224 | 10504 ft | 301 kts | 292° |
| 2026-05-08 21:44 | 53.65781 | 15.49023 | 10398 ft | 292 kts | 292° |
| 2026-05-08 21:45 | 53.66249 | 15.45738 | 10237 ft | 287 kts | 270° |
| 2026-05-08 21:45 | 53.65805 | 15.42485 | 10048 ft | 282 kts | 243° |
| 2026-05-08 21:45 | 53.64620 | 15.39868 | 9421 ft | 291 kts | 220° |
| 2026-05-08 21:45 | 53.62926 | 15.37991 | 8798 ft | 292 kts | 208° |
| 2026-05-08 21:46 | 53.61139 | 15.36340 | 8162 ft | 293 kts | 206° |
| 2026-05-08 21:46 | 53.59351 | 15.34689 | 7531 ft | 293 kts | 206° |
| 2026-05-08 21:46 | 53.57568 | 15.33020 | 6924 ft | 293 kts | 207° |
| 2026-05-08 21:46 | 53.55793 | 15.31344 | 6291 ft | 293 kts | 208° |
| 2026-05-08 21:47 | 53.54030 | 15.29677 | 5719 ft | 290 kts | 208° |
| 2026-05-08 21:47 | 53.52307 | 15.28044 | 5324 ft | 281 kts | 207° |
| 2026-05-08 21:47 | 53.50626 | 15.26434 | 4944 ft | 273 kts | 212° |
| 2026-05-08 21:47 | 53.49149 | 15.24500 | 4615 ft | 266 kts | 221° |
| 2026-05-08 21:48 | 53.47789 | 15.22450 | 4289 ft | 259 kts | 222° |
| 2026-05-08 21:48 | 53.46526 | 15.20383 | 3992 ft | 251 kts | 234° |
| 2026-05-08 21:48 | 53.45885 | 15.17744 | 3695 ft | 241 kts | 266° |
| 2026-05-08 21:48 | 53.46074 | 15.15077 | 3468 ft | 223 kts | 297° |
| 2026-05-08 21:49 | 53.46929 | 15.13039 | 3204 ft | 207 kts | 311° |
| 2026-05-08 21:49 | 53.47780 | 15.11154 | 2932 ft | 198 kts | 310° |
| 2026-05-08 21:49 | 53.48627 | 15.09406 | 2687 ft | 189 kts | 313° |
| 2026-05-08 21:49 | 53.49465 | 15.07776 | 2494 ft | 181 kts | 315° |
| 2026-05-08 21:50 | 53.50280 | 15.06192 | 2297 ft | 176 kts | 314° |
| 2026-05-08 21:50 | 53.51054 | 15.04682 | 2101 ft | 164 kts | 314° |
| 2026-05-08 21:50 | 53.51769 | 15.03282 | 1992 ft | 153 kts | 315° |
| 2026-05-08 21:50 | 53.52460 | 15.01938 | 1828 ft | 150 kts | 315° |
| 2026-05-08 21:51 | 53.53125 | 15.00641 | 1591 ft | 143 kts | 314° |
| 2026-05-08 21:51 | 53.53764 | 14.99397 | 1402 ft | 139 kts | 315° |
| 2026-05-08 21:51 | 53.54392 | 14.98174 | 1223 ft | 139 kts | 315° |
| 2026-05-08 21:51 | 53.55026 | 14.96938 | 1021 ft | 141 kts | 315° |
| 2026-05-08 21:52 | 53.55668 | 14.95700 | 787 ft | 139 kts | 318° |
| 2026-05-08 21:52 | 53.56325 | 14.94499 | 657 ft | 143 kts | 312° |
| 2026-05-08 21:52 | 53.56948 | 14.93209 | 458 ft | 140 kts | 318° |
| 2026-05-08 21:52 | 53.57559 | 14.91989 | 271 ft | 136 kts | 312° |
| 2026-05-08 21:53 | 53.58156 | 14.90850 | 151 ft | 120 kts | 312° |
| 2026-05-08 21:53 | 53.58600 | 14.89981 | 140 ft | 76 kts | 310° |
| 2026-05-08 21:53 | 53.58853 | 14.89493 | 134 ft | 44 kts | 310° |
| 2026-05-08 21:53 | 53.59020 | 14.89169 | 128 ft | 13 kts | 310° |
| 2026-05-08 21:54 | 53.59098 | 14.89151 | 125 ft | 13 kts | 40° |
| 2026-05-08 21:54 | 53.59104 | 14.89160 | 126 ft | 0 kts | 42° |
| 2026-05-08 21:55 | 53.59104 | 14.89161 | 126 ft | 0 kts | 42° |
| 2026-05-08 21:55 | 53.59112 | 14.89172 | 125 ft | 3 kts | 42° |